createdAt,value
2017-08-01T00:00:06.740Z,22.63
2017-08-01T00:01:06.649Z,22.62
2017-08-01T00:02:06.628Z,22.65
2017-08-01T00:03:06.631Z,22.69
2017-08-01T00:04:06.640Z,22.6
2017-08-01T00:05:06.648Z,22.68
2017-08-01T00:06:06.649Z,22.68
2017-08-01T00:07:06.646Z,22.65
2017-08-01T00:08:06.665Z,22.65
2017-08-01T00:09:06.680Z,22.62
2017-08-01T00:10:06.673Z,22.66
2017-08-01T00:11:06.670Z,22.6
2017-08-01T00:12:06.673Z,22.51
2017-08-01T00:13:06.375Z,22.6
2017-08-01T00:14:06.679Z,22.59
2017-08-01T00:15:13.036Z,22.59
2017-08-01T00:16:06.406Z,22.59
2017-08-01T00:17:06.706Z,22.59
2017-08-01T00:18:06.701Z,22.63
2017-08-01T00:19:06.404Z,22.59
2017-08-01T00:20:06.708Z,22.51
2017-08-01T00:21:06.706Z,22.62
2017-08-01T00:22:06.447Z,22.62
2017-08-01T00:23:06.760Z,22.54
2017-08-01T00:24:06.711Z,22.63
2017-08-01T00:25:06.719Z,22.55
2017-08-01T00:26:06.413Z,22.45
2017-08-01T00:27:06.422Z,22.47
2017-08-01T00:28:06.748Z,22.38
2017-08-01T00:29:06.740Z,22.36
2017-08-01T00:30:06.840Z,22.32
2017-08-01T00:31:06.740Z,22.28
2017-08-01T00:32:06.740Z,22.3
2017-08-01T00:33:06.745Z,22.14
2017-08-01T00:34:06.458Z,22.29
2017-08-01T00:35:06.754Z,22.23
2017-08-01T00:36:06.759Z,22.18
2017-08-01T00:37:06.763Z,22.14
2017-08-01T00:38:06.798Z,22.2
2017-08-01T00:39:06.465Z,22.18
2017-08-01T00:40:06.476Z,22.15
2017-08-01T00:41:06.181Z,22.18
2017-08-01T00:42:06.787Z,22.13
2017-08-01T00:43:06.795Z,22.13
2017-08-01T00:44:06.794Z,22.15
2017-08-01T00:45:08.806Z,22.15
2017-08-01T00:46:06.793Z,22.22
2017-08-01T00:47:06.797Z,22.26
2017-08-01T00:48:06.801Z,22.22
2017-08-01T00:49:06.804Z,22.33
2017-08-01T00:50:06.514Z,22.23
2017-08-01T00:51:06.510Z,22.26
2017-08-01T00:52:06.815Z,22.3
2017-08-01T00:53:06.822Z,22.29
2017-08-01T00:54:06.829Z,22.36
2017-08-01T00:55:06.832Z,22.36
2017-08-01T00:56:06.829Z,22.39
2017-08-01T00:57:06.541Z,22.29
2017-08-01T00:58:06.836Z,22.29
2017-08-01T00:59:06.855Z,22.36
2017-08-01T01:00:06.844Z,22.33
2017-08-01T01:01:06.859Z,22.39
2017-08-01T01:02:06.856Z,22.3
2017-08-01T01:03:06.555Z,22.33
2017-08-01T01:04:06.866Z,22.35
2017-08-01T01:05:06.562Z,22.26
2017-08-01T01:06:06.611Z,22.26
2017-08-01T01:07:06.573Z,22.3
2017-08-01T01:08:06.889Z,22.28
2017-08-01T01:09:06.590Z,22.38
2017-08-01T01:10:06.891Z,22.45
2017-08-01T01:11:06.893Z,22.48
2017-08-01T01:12:06.891Z,22.44
2017-08-01T01:13:06.606Z,22.45
2017-08-01T01:14:06.603Z,22.47
2017-08-01T01:15:06.902Z,22.41
2017-08-01T01:16:08.959Z,22.44
2017-08-01T01:17:06.924Z,22.36
2017-08-01T01:18:06.611Z,22.35
2017-08-01T01:19:06.610Z,22.23
2017-08-01T01:20:06.627Z,22.25
2017-08-01T01:21:06.953Z,22.18
2017-08-01T01:22:06.931Z,22.14
2017-08-01T01:23:06.929Z,22.11
2017-08-01T01:24:06.933Z,22.15
2017-08-01T01:25:06.650Z,22.08
2017-08-01T01:26:06.645Z,22.14
2017-08-01T01:27:06.954Z,22.26
2017-08-01T01:28:06.955Z,22.14
2017-08-01T01:29:06.956Z,22.22
2017-08-01T01:30:06.957Z,22.25
2017-08-01T01:31:08.611Z,22.23
2017-08-01T01:32:06.967Z,22.25
2017-08-01T01:33:06.669Z,22.25
2017-08-01T01:34:06.681Z,22.26
2017-08-01T01:35:06.985Z,22.3
2017-08-01T01:36:06.982Z,22.28
2017-08-01T01:37:06.988Z,22.3
2017-08-01T01:38:06.997Z,22.3
2017-08-01T01:39:06.998Z,22.36
2017-08-01T01:40:07.001Z,22.33
2017-08-01T01:41:06.993Z,22.33
2017-08-01T01:42:06.997Z,22.36
2017-08-01T01:43:07.004Z,22.38
2017-08-01T01:44:06.709Z,22.33
2017-08-01T01:45:07.008Z,22.33
2017-08-01T01:46:07.009Z,22.35
2017-08-01T01:47:07.017Z,22.32
2017-08-01T01:48:07.022Z,22.3
2017-08-01T01:49:07.020Z,22.33
2017-08-01T01:50:06.719Z,22.32
2017-08-01T01:51:07.040Z,22.33
2017-08-01T01:52:06.737Z,22.3
2017-08-01T01:53:06.763Z,22.23
2017-08-01T01:54:06.737Z,22.32
2017-08-01T01:55:07.064Z,22.29
2017-08-01T01:56:06.446Z,22.25
2017-08-01T01:57:06.751Z,22.35
2017-08-01T01:58:07.053Z,22.36
2017-08-01T01:59:07.062Z,22.29
2017-08-01T02:00:06.770Z,22.39
2017-08-01T02:01:07.066Z,22.47
2017-08-01T02:02:08.067Z,22.41
2017-08-01T02:03:07.070Z,22.5
2017-08-01T02:04:06.782Z,22.43
2017-08-01T02:05:07.089Z,22.53
2017-08-01T02:06:07.092Z,22.48
2017-08-01T02:07:07.091Z,22.44
2017-08-01T02:08:06.790Z,22.41
2017-08-01T02:09:07.101Z,22.44
2017-08-01T02:10:07.112Z,22.43
2017-08-01T02:11:06.806Z,22.33
2017-08-01T02:12:07.112Z,22.36
2017-08-01T02:13:07.481Z,22.29
2017-08-01T02:14:06.826Z,22.28
2017-08-01T02:15:06.813Z,22.17
2017-08-01T02:16:07.114Z,22.33
2017-08-01T02:17:11.081Z,22.14
2017-08-01T02:18:07.133Z,22.3
2017-08-01T02:19:07.133Z,22.32
2017-08-01T02:20:07.139Z,22.3
2017-08-01T02:21:07.154Z,22.35
2017-08-01T02:22:07.156Z,22.33
2017-08-01T02:23:07.157Z,22.26
2017-08-01T02:24:06.857Z,22.29
2017-08-01T02:25:07.157Z,22.43
2017-08-01T02:26:07.156Z,22.45
2017-08-01T02:27:07.162Z,22.45
2017-08-01T02:28:07.158Z,22.45
2017-08-01T02:29:07.174Z,22.5
2017-08-01T02:30:07.187Z,22.45
2017-08-01T02:31:07.176Z,22.53
2017-08-01T02:32:07.175Z,22.66
2017-08-01T02:33:06.875Z,22.81
2017-08-01T02:34:06.889Z,22.83
2017-08-01T02:35:07.185Z,22.83
2017-08-01T02:36:07.195Z,23
2017-08-01T02:37:06.596Z,23.12
2017-08-01T02:38:07.204Z,23.12
2017-08-01T02:39:07.206Z,23.13
2017-08-01T02:40:07.211Z,23.1
2017-08-01T02:41:07.234Z,22.98
2017-08-01T02:42:07.207Z,23
2017-08-01T02:43:06.925Z,22.84
2017-08-01T02:44:06.925Z,22.84
2017-08-01T02:45:07.223Z,22.75
2017-08-01T02:46:07.225Z,22.7
2017-08-01T02:47:06.929Z,22.53
2017-08-01T02:48:08.397Z,22.54
2017-08-01T02:49:07.236Z,22.54
2017-08-01T02:50:07.240Z,22.5
2017-08-01T02:51:07.249Z,22.53
2017-08-01T02:52:07.241Z,22.47
2017-08-01T02:53:07.296Z,22.35
2017-08-01T02:54:07.256Z,22.32
2017-08-01T02:55:06.957Z,22.3
2017-08-01T02:56:07.261Z,22.3
2017-08-01T02:57:07.263Z,22.3
2017-08-01T02:58:06.967Z,22.22
2017-08-01T02:59:06.970Z,22.26
2017-08-01T03:00:06.968Z,22.2
2017-08-01T03:01:06.977Z,22.15
2017-08-01T03:02:06.995Z,22.22
2017-08-01T03:03:07.039Z,22.14
2017-08-01T03:04:07.291Z,22.13
2017-08-01T03:05:07.289Z,22.07
2017-08-01T03:06:07.297Z,22.06
2017-08-01T03:07:06.992Z,22.04
2017-08-01T03:08:07.303Z,22.02
2017-08-01T03:09:07.004Z,22.02
2017-08-01T03:10:07.306Z,22.06
2017-08-01T03:11:07.307Z,21.99
2017-08-01T03:12:07.318Z,21.99
2017-08-01T03:13:07.025Z,21.99
2017-08-01T03:14:07.020Z,21.93
2017-08-01T03:15:07.031Z,21.95
2017-08-01T03:16:07.329Z,22.02
2017-08-01T03:17:07.334Z,21.99
2017-08-01T03:18:08.353Z,21.85
2017-08-01T03:19:07.335Z,21.89
2017-08-01T03:20:07.361Z,21.96
2017-08-01T03:21:07.390Z,21.85
2017-08-01T03:22:07.343Z,21.96
2017-08-01T03:23:07.355Z,21.89
2017-08-01T03:24:07.351Z,21.92
2017-08-01T03:25:07.382Z,21.96
2017-08-01T03:26:07.357Z,21.88
2017-08-01T03:27:07.365Z,21.92
2017-08-01T03:28:07.369Z,21.91
2017-08-01T03:29:07.394Z,21.82
2017-08-01T03:30:07.075Z,21.88
2017-08-01T03:31:07.388Z,21.95
2017-08-01T03:32:07.388Z,21.91
2017-08-01T03:33:07.441Z,21.95
2017-08-01T03:34:07.388Z,21.92
2017-08-01T03:35:07.408Z,21.89
2017-08-01T03:36:07.101Z,21.89
2017-08-01T03:37:07.397Z,21.83
2017-08-01T03:38:07.098Z,21.83
2017-08-01T03:39:07.406Z,21.82
2017-08-01T03:40:07.102Z,21.89
2017-08-01T03:41:07.410Z,21.83
2017-08-01T03:42:07.116Z,21.77
2017-08-01T03:43:07.415Z,21.8
2017-08-01T03:44:07.114Z,21.8
2017-08-01T03:45:07.131Z,21.83
2017-08-01T03:46:07.435Z,21.89
2017-08-01T03:47:07.439Z,21.83
2017-08-01T03:48:07.628Z,21.77
2017-08-01T03:49:07.439Z,21.79
2017-08-01T03:50:07.444Z,21.73
2017-08-01T03:51:07.459Z,21.76
2017-08-01T03:52:07.459Z,21.75
2017-08-01T03:53:07.459Z,21.79
2017-08-01T03:54:07.457Z,21.69
2017-08-01T03:55:07.477Z,21.73
2017-08-01T03:56:07.465Z,21.77
2017-08-01T03:57:07.466Z,21.72
2017-08-01T03:58:07.470Z,21.73
2017-08-01T03:59:07.168Z,21.69
2017-08-01T04:00:07.489Z,21.75
2017-08-01T04:01:07.478Z,21.72
2017-08-01T04:02:07.482Z,21.69
2017-08-01T04:03:07.489Z,21.73
2017-08-01T04:04:07.193Z,21.8
2017-08-01T04:05:07.533Z,21.75
2017-08-01T04:06:07.512Z,21.73
2017-08-01T04:07:07.503Z,21.92
2017-08-01T04:08:07.531Z,21.93
2017-08-01T04:09:07.508Z,21.91
2017-08-01T04:10:07.505Z,21.91
2017-08-01T04:11:07.512Z,22.02
2017-08-01T04:12:07.533Z,21.95
2017-08-01T04:13:07.533Z,21.95
2017-08-01T04:14:07.538Z,21.99
2017-08-01T04:15:07.534Z,21.99
2017-08-01T04:16:07.533Z,22.02
2017-08-01T04:17:07.538Z,22
2017-08-01T04:18:07.534Z,22.06
2017-08-01T04:19:07.551Z,22
2017-08-01T04:20:07.234Z,22.07
2017-08-01T04:21:07.545Z,21.98
2017-08-01T04:22:07.543Z,22.04
2017-08-01T04:23:07.552Z,21.93
2017-08-01T04:24:07.261Z,21.98
2017-08-01T04:25:07.584Z,21.99
2017-08-01T04:26:07.562Z,21.95
2017-08-01T04:27:07.563Z,21.98
2017-08-01T04:28:07.539Z,21.93
2017-08-01T04:29:07.571Z,21.93
2017-08-01T04:30:07.269Z,21.92
2017-08-01T04:31:07.579Z,21.98
2017-08-01T04:32:07.579Z,22
2017-08-01T04:33:07.584Z,21.93
2017-08-01T04:34:07.585Z,22.02
2017-08-01T04:35:07.610Z,22.02
2017-08-01T04:36:07.607Z,22
2017-08-01T04:37:07.601Z,21.98
2017-08-01T04:38:07.301Z,22
2017-08-01T04:39:07.614Z,21.95
2017-08-01T04:40:07.673Z,21.99
2017-08-01T04:41:07.613Z,21.98
2017-08-01T04:42:07.618Z,22.1
2017-08-01T04:43:07.623Z,22.1
2017-08-01T04:44:07.620Z,22.17
2017-08-01T04:45:07.625Z,22.25
2017-08-01T04:46:07.335Z,22.26
2017-08-01T04:47:07.631Z,22.32
2017-08-01T04:48:07.333Z,22.38
2017-08-01T04:49:07.639Z,22.45
2017-08-01T04:50:07.365Z,22.54
2017-08-01T04:51:07.646Z,22.66
2017-08-01T04:52:07.650Z,22.69
2017-08-01T04:53:07.657Z,22.81
2017-08-01T04:54:07.360Z,23
2017-08-01T04:55:07.777Z,23.1
2017-08-01T04:56:07.668Z,23.23
2017-08-01T04:57:07.071Z,23.5
2017-08-01T04:58:07.380Z,23.62
2017-08-01T04:59:07.678Z,23.73
2017-08-01T05:00:07.388Z,23.77
2017-08-01T05:01:07.685Z,23.78
2017-08-01T05:02:07.698Z,23.87
2017-08-01T05:03:07.392Z,23.96
2017-08-01T05:04:07.471Z,23.92
2017-08-01T05:05:07.703Z,23.93
2017-08-01T05:06:07.710Z,24.01
2017-08-01T05:07:07.723Z,24.1
2017-08-01T05:08:07.721Z,24.33
2017-08-01T05:09:07.724Z,24.47
2017-08-01T05:10:07.453Z,24.36
2017-08-01T05:11:07.739Z,24.32
2017-08-01T05:12:07.439Z,24.16
2017-08-01T05:13:07.453Z,23.99
2017-08-01T05:14:07.757Z,23.92
2017-08-01T05:15:07.766Z,23.68
2017-08-01T05:16:07.759Z,23.62
2017-08-01T05:17:07.480Z,23.62
2017-08-01T05:18:07.787Z,23.56
2017-08-01T05:19:08.314Z,23.61
2017-08-01T05:20:07.219Z,23.55
2017-08-01T05:21:07.791Z,23.55
2017-08-01T05:22:07.792Z,23.56
2017-08-01T05:23:07.801Z,23.56
2017-08-01T05:24:07.809Z,23.55
2017-08-01T05:25:07.946Z,23.56
2017-08-01T05:26:07.812Z,23.55
2017-08-01T05:27:07.822Z,23.58
2017-08-01T05:28:07.821Z,23.5
2017-08-01T05:29:07.826Z,23.47
2017-08-01T05:30:07.929Z,23.51
2017-08-01T05:31:07.833Z,23.58
2017-08-01T05:32:07.536Z,23.66
2017-08-01T05:33:07.543Z,23.68
2017-08-01T05:34:12.817Z,23.68
2017-08-01T05:35:07.592Z,23.83
2017-08-01T05:36:07.631Z,23.84
2017-08-01T05:37:07.927Z,24.03
2017-08-01T05:38:07.861Z,24.18
2017-08-01T05:39:07.867Z,24.26
2017-08-01T05:40:07.980Z,24.33
2017-08-01T05:41:07.874Z,24.33
2017-08-01T05:42:07.880Z,24.42
2017-08-01T05:43:07.886Z,24.38
2017-08-01T05:44:07.585Z,24.43
2017-08-01T05:45:07.919Z,24.33
2017-08-01T05:46:07.905Z,24.3
2017-08-01T05:47:07.906Z,24.24
2017-08-01T05:48:07.606Z,24.18
2017-08-01T05:49:07.619Z,24.2
2017-08-01T05:50:08.019Z,24.23
2017-08-01T05:51:07.629Z,24.24
2017-08-01T05:52:07.326Z,24.17
2017-08-01T05:53:07.632Z,24.13
2017-08-01T05:54:07.940Z,24.06
2017-08-01T05:55:07.779Z,24.01
2017-08-01T05:56:07.950Z,23.95
2017-08-01T05:57:07.949Z,23.95
2017-08-01T05:58:07.961Z,23.98
2017-08-01T05:59:07.957Z,23.96
2017-08-01T06:00:08.179Z,23.86
2017-08-01T06:01:07.974Z,23.93
2017-08-01T06:02:07.975Z,23.86
2017-08-01T06:03:07.978Z,23.76
2017-08-01T06:04:07.984Z,23.78
2017-08-01T06:05:08.255Z,23.76
2017-08-01T06:06:07.987Z,23.78
2017-08-01T06:07:07.996Z,23.87
2017-08-01T06:08:07.704Z,23.87
2017-08-01T06:09:08.004Z,23.96
2017-08-01T06:10:07.730Z,23.92
2017-08-01T06:11:08.016Z,23.88
2017-08-01T06:12:07.718Z,23.8
2017-08-01T06:13:08.022Z,23.91
2017-08-01T06:14:07.813Z,23.92
2017-08-01T06:15:08.222Z,23.93
2017-08-01T06:16:07.752Z,24.14
2017-08-01T06:17:08.061Z,24.05
2017-08-01T06:18:08.125Z,23.98
2017-08-01T06:19:08.134Z,24.02
2017-08-01T06:20:10.601Z,24.01
2017-08-01T06:21:08.061Z,24.11
2017-08-01T06:22:07.757Z,24.2
2017-08-01T06:23:07.762Z,24.58
2017-08-01T06:24:08.114Z,24.92
2017-08-01T06:25:07.857Z,24.98
2017-08-01T06:26:08.079Z,25.03
2017-08-01T06:27:08.084Z,25.13
2017-08-01T06:28:07.787Z,25.1
2017-08-01T06:29:08.097Z,25.03
2017-08-01T06:30:08.256Z,25.03
2017-08-01T06:31:08.102Z,25.1
2017-08-01T06:32:08.118Z,25.33
2017-08-01T06:33:08.120Z,25.66
2017-08-01T06:34:08.132Z,25.68
2017-08-01T06:35:10.682Z,25.69
2017-08-01T06:36:08.126Z,25.55
2017-08-01T06:37:07.842Z,25.43
2017-08-01T06:38:08.144Z,25.38
2017-08-01T06:39:08.142Z,25.53
2017-08-01T06:40:07.848Z,25.59
2017-08-01T06:41:08.164Z,26.1
2017-08-01T06:42:08.159Z,26.33
2017-08-01T06:43:08.169Z,26.51
2017-08-01T06:44:08.167Z,26.59
2017-08-01T06:45:08.303Z,27.02
2017-08-01T06:46:08.179Z,27.3
2017-08-01T06:47:07.886Z,27.82
2017-08-01T06:48:07.894Z,28.23
2017-08-01T06:49:08.201Z,28.45
2017-08-01T06:50:14.717Z,28.7
2017-08-01T06:51:07.919Z,28.96
2017-08-01T06:52:07.918Z,29.19
2017-08-01T06:53:08.232Z,29.49
2017-08-01T06:54:08.264Z,29.84
2017-08-01T06:55:08.322Z,30
2017-08-01T06:56:08.268Z,30.39
2017-08-01T06:57:07.955Z,30.77
2017-08-01T06:58:07.971Z,30.99
2017-08-01T06:59:08.268Z,31.07
2017-08-01T07:00:08.508Z,31.17
2017-08-01T07:01:07.985Z,30.85
2017-08-01T07:02:08.388Z,30.27
2017-08-01T07:03:08.334Z,29.27
2017-08-01T07:04:08.323Z,28.52
2017-08-01T07:05:08.508Z,28.01
2017-08-01T07:06:07.721Z,27.78
2017-08-01T07:07:08.346Z,27.63
2017-08-01T07:08:08.043Z,27.64
2017-08-01T07:09:08.379Z,27.92
2017-08-01T07:10:08.357Z,28.14
2017-08-01T07:11:09.162Z,28.26
2017-08-01T07:12:08.063Z,28.54
2017-08-01T07:13:07.776Z,28.42
2017-08-01T07:14:07.777Z,28.1
2017-08-01T07:15:08.230Z,27.86
2017-08-01T07:16:08.100Z,28.04
2017-08-01T07:17:08.100Z,28.08
2017-08-01T07:18:08.421Z,28.38
2017-08-01T07:19:08.125Z,28.64
2017-08-01T07:20:08.245Z,28.82
2017-08-01T07:21:09.433Z,28.98
2017-08-01T07:22:08.457Z,29.31
2017-08-01T07:23:08.140Z,29.63
2017-08-01T07:24:08.490Z,29.95
2017-08-01T07:25:08.039Z,29.94
2017-08-01T07:26:08.485Z,29.79
2017-08-01T07:27:08.172Z,29.6
2017-08-01T07:28:08.502Z,29.39
2017-08-01T07:29:08.502Z,29.38
2017-08-01T07:30:08.817Z,29.34
2017-08-01T07:31:08.510Z,29.41
2017-08-01T07:32:08.533Z,29.71
2017-08-01T07:33:08.540Z,29.86
2017-08-01T07:34:08.531Z,30.19
2017-08-01T07:35:08.836Z,30.3
2017-08-01T07:36:08.287Z,30.5
2017-08-01T07:37:08.258Z,30.85
2017-08-01T07:38:08.555Z,31.09
2017-08-01T07:39:08.264Z,31.33
2017-08-01T07:40:08.412Z,31.39
2017-08-01T07:41:08.576Z,31.66
2017-08-01T07:42:08.581Z,31.49
2017-08-01T07:43:08.319Z,31.39
2017-08-01T07:44:08.614Z,31.37
2017-08-01T07:45:08.968Z,31.39
2017-08-01T07:46:08.623Z,31.31
2017-08-01T07:47:08.641Z,31.69
2017-08-01T07:48:08.638Z,31.73
2017-08-01T07:49:08.645Z,32.18
2017-08-01T07:50:08.987Z,32.59
2017-08-01T07:51:11.317Z,32.78
2017-08-01T07:52:08.669Z,32.92
2017-08-01T07:53:08.681Z,33.05
2017-08-01T07:54:08.688Z,33.14
2017-08-01T07:55:09.039Z,32.83
2017-08-01T07:56:08.705Z,32.68
2017-08-01T07:57:08.437Z,32.56
2017-08-01T07:58:08.429Z,32.67
2017-08-01T07:59:08.141Z,32.85
2017-08-01T08:00:09.068Z,32.83
2017-08-01T08:01:08.470Z,32.93
2017-08-01T08:02:08.760Z,33.11
2017-08-01T08:03:08.478Z,33.39
2017-08-01T08:04:08.486Z,33.45
2017-08-01T08:05:09.120Z,33.55
2017-08-01T08:06:08.815Z,33.65
2017-08-01T08:07:08.809Z,33.77
2017-08-01T08:08:08.819Z,33.67
2017-08-01T08:09:08.836Z,33.83
2017-08-01T08:10:09.254Z,33.92
2017-08-01T08:11:08.861Z,33.83
2017-08-01T08:12:08.563Z,33.67
2017-08-01T08:13:08.874Z,33.57
2017-08-01T08:14:08.889Z,33.53
2017-08-01T08:15:09.222Z,33.52
2017-08-01T08:16:08.906Z,33.61
2017-08-01T08:17:08.911Z,33.57
2017-08-01T08:18:08.922Z,33.65
2017-08-01T08:19:08.924Z,33.86
2017-08-01T08:20:09.231Z,33.94
2017-08-01T08:21:08.944Z,34.14
2017-08-01T08:22:08.960Z,34.1
2017-08-01T08:23:08.976Z,33.74
2017-08-01T08:24:08.986Z,33.55
2017-08-01T08:25:09.420Z,33.8
2017-08-01T08:26:08.992Z,33.68
2017-08-01T08:27:09.019Z,33.87
2017-08-01T08:28:08.713Z,33.86
2017-08-01T08:29:09.050Z,33.69
2017-08-01T08:30:09.443Z,33.52
2017-08-01T08:31:08.769Z,33.52
2017-08-01T08:32:09.055Z,33.68
2017-08-01T08:33:09.066Z,34.05
2017-08-01T08:34:08.790Z,34.11
2017-08-01T08:35:09.457Z,33.89
2017-08-01T08:36:08.794Z,33.8
2017-08-01T08:37:09.410Z,33.67
2017-08-01T08:38:08.814Z,33.74
2017-08-01T08:39:09.140Z,33.65
2017-08-01T08:40:09.161Z,33.27
2017-08-01T08:41:09.153Z,32.73
2017-08-01T08:42:08.856Z,32.65
2017-08-01T08:43:09.169Z,32.68
2017-08-01T08:44:08.891Z,32.73
2017-08-01T08:45:09.539Z,32.82
2017-08-01T08:46:09.201Z,33.05
2017-08-01T08:47:09.207Z,33.12
2017-08-01T08:48:09.230Z,33.28
2017-08-01T08:49:08.933Z,33.11
2017-08-01T08:50:09.648Z,33.34
2017-08-01T08:51:08.941Z,33.43
2017-08-01T08:52:11.523Z,33.34
2017-08-01T08:53:09.268Z,33.22
2017-08-01T08:54:08.967Z,33.02
2017-08-01T08:55:09.284Z,32.74
2017-08-01T08:56:08.988Z,32.46
2017-08-01T08:57:09.312Z,32.08
2017-08-01T08:58:09.316Z,31.8
2017-08-01T08:59:09.322Z,31.59
2017-08-01T09:00:09.778Z,31.4
2017-08-01T09:01:09.049Z,31.09
2017-08-01T09:02:09.352Z,30.88
2017-08-01T09:03:09.360Z,30.66
2017-08-01T09:04:09.370Z,30.61
2017-08-01T09:05:09.807Z,30.59
2017-08-01T09:06:09.394Z,30.57
2017-08-01T09:07:09.452Z,30.37
2017-08-01T09:08:09.410Z,30.4
2017-08-01T09:09:09.418Z,30.31
2017-08-01T09:10:09.488Z,30.27
2017-08-01T09:11:09.438Z,30.18
2017-08-01T09:12:09.458Z,30.13
2017-08-01T09:13:09.458Z,30.16
2017-08-01T09:14:09.463Z,30.16
2017-08-01T09:15:09.886Z,30.1
2017-08-01T09:16:09.482Z,30.08
2017-08-01T09:17:09.493Z,30.18
2017-08-01T09:18:09.191Z,30.25
2017-08-01T09:19:09.514Z,30.24
2017-08-01T09:20:09.999Z,30.24
2017-08-01T09:21:09.525Z,30.15
2017-08-01T09:22:11.278Z,30.18
2017-08-01T09:23:09.548Z,30.1
2017-08-01T09:24:09.550Z,30.28
2017-08-01T09:25:09.677Z,30.3
2017-08-01T09:26:08.960Z,30.27
2017-08-01T09:27:09.567Z,30.4
2017-08-01T09:28:09.273Z,30.39
2017-08-01T09:29:09.586Z,30.46
2017-08-01T09:30:10.030Z,30.31
2017-08-01T09:31:09.596Z,30.4
2017-08-01T09:32:09.596Z,30.4
2017-08-01T09:33:09.610Z,30.43
2017-08-01T09:34:09.628Z,30.43
2017-08-01T09:35:10.073Z,30.5
2017-08-01T09:36:09.629Z,30.43
2017-08-01T09:37:09.697Z,30.54
2017-08-01T09:38:09.358Z,30.61
2017-08-01T09:39:09.661Z,30.73
2017-08-01T09:40:10.155Z,30.87
2017-08-01T09:41:09.674Z,30.88
2017-08-01T09:42:09.397Z,30.92
2017-08-01T09:43:09.681Z,31.06
2017-08-01T09:44:09.702Z,31.06
2017-08-01T09:45:10.186Z,31.18
2017-08-01T09:46:09.790Z,31.29
2017-08-01T09:47:09.711Z,31.29
2017-08-01T09:48:09.413Z,31.36
2017-08-01T09:49:09.412Z,31.44
2017-08-01T09:50:10.270Z,31.4
2017-08-01T09:51:09.733Z,31.28
2017-08-01T09:52:12.345Z,31.21
2017-08-01T09:53:09.536Z,31.1
2017-08-01T09:54:09.465Z,31.12
2017-08-01T09:55:10.348Z,31.07
2017-08-01T09:56:09.784Z,31.15
2017-08-01T09:57:09.480Z,31.2
2017-08-01T09:58:09.787Z,31.14
2017-08-01T09:59:09.796Z,31.12
2017-08-01T10:00:09.911Z,31.2
2017-08-01T10:01:09.806Z,31.2
2017-08-01T10:02:09.815Z,31.21
2017-08-01T10:03:09.836Z,31.07
2017-08-01T10:04:09.829Z,31.07
2017-08-01T10:05:09.964Z,30.97
2017-08-01T10:06:09.843Z,30.81
2017-08-01T10:07:09.856Z,30.66
2017-08-01T10:08:09.564Z,30.75
2017-08-01T10:09:09.875Z,30.68
2017-08-01T10:10:10.476Z,30.65
2017-08-01T10:11:09.884Z,30.54
2017-08-01T10:12:09.295Z,30.46
2017-08-01T10:13:09.600Z,30.43
2017-08-01T10:14:09.300Z,30.46
2017-08-01T10:15:10.070Z,30.34
2017-08-01T10:16:09.927Z,30.35
2017-08-01T10:17:09.929Z,30.24
2017-08-01T10:18:09.627Z,30.18
2017-08-01T10:19:09.935Z,30.16
2017-08-01T10:20:10.490Z,30.16
2017-08-01T10:21:09.953Z,30.08
2017-08-01T10:22:09.662Z,29.97
2017-08-01T10:23:09.664Z,30.13
2017-08-01T10:24:09.966Z,30.15
2017-08-01T10:25:10.414Z,30.19
2017-08-01T10:26:09.991Z,30.37
2017-08-01T10:27:09.993Z,30.31
2017-08-01T10:28:10.005Z,30.32
2017-08-01T10:29:10.022Z,30.3
2017-08-01T10:30:10.264Z,30.43
2017-08-01T10:31:10.029Z,30.5
2017-08-01T10:32:10.025Z,30.5
2017-08-01T10:33:10.033Z,30.5
2017-08-01T10:34:09.736Z,30.35
2017-08-01T10:35:10.309Z,30.44
2017-08-01T10:36:10.050Z,30.51
2017-08-01T10:37:09.463Z,30.54
2017-08-01T10:38:10.118Z,30.63
2017-08-01T10:39:09.796Z,30.62
2017-08-01T10:40:10.770Z,30.63
2017-08-01T10:41:10.097Z,30.59
2017-08-01T10:42:10.093Z,30.61
2017-08-01T10:43:10.107Z,30.59
2017-08-01T10:44:09.812Z,30.59
2017-08-01T10:45:10.298Z,30.7
2017-08-01T10:46:09.820Z,30.75
2017-08-01T10:47:10.125Z,30.83
2017-08-01T10:48:09.832Z,30.84
2017-08-01T10:49:09.841Z,30.92
2017-08-01T10:50:10.822Z,30.91
2017-08-01T10:51:10.170Z,30.97
2017-08-01T10:52:10.161Z,30.94
2017-08-01T10:53:13.036Z,31.09
2017-08-01T10:54:09.883Z,31.07
2017-08-01T10:55:11.033Z,31.07
2017-08-01T10:56:09.898Z,31.05
2017-08-01T10:57:10.201Z,31.21
2017-08-01T10:58:10.222Z,31.31
2017-08-01T10:59:10.212Z,31.39
2017-08-01T11:00:11.080Z,31.65
2017-08-01T11:01:10.258Z,31.73
2017-08-01T11:02:10.235Z,31.89
2017-08-01T11:03:10.256Z,31.92
2017-08-01T11:04:09.947Z,32.03
2017-08-01T11:05:10.705Z,32.21
2017-08-01T11:06:10.260Z,32.3
2017-08-01T11:07:10.280Z,32.38
2017-08-01T11:08:10.328Z,32.45
2017-08-01T11:09:10.284Z,32.38
2017-08-01T11:10:11.065Z,32.51
2017-08-01T11:11:10.311Z,32.55
2017-08-01T11:12:10.310Z,32.58
2017-08-01T11:13:10.350Z,32.53
2017-08-01T11:14:10.324Z,32.59
2017-08-01T11:15:11.163Z,32.63
2017-08-01T11:16:10.349Z,32.82
2017-08-01T11:17:10.342Z,32.83
2017-08-01T11:18:10.359Z,32.89
2017-08-01T11:19:10.365Z,32.68
2017-08-01T11:20:10.930Z,32.6
2017-08-01T11:21:10.403Z,32.46
2017-08-01T11:22:10.390Z,32.37
2017-08-01T11:23:11.517Z,32.48
2017-08-01T11:24:10.400Z,32.6
2017-08-01T11:25:11.320Z,32.7
2017-08-01T11:26:10.127Z,32.78
2017-08-01T11:27:10.119Z,32.78
2017-08-01T11:28:10.133Z,32.95
2017-08-01T11:29:10.442Z,32.86
2017-08-01T11:30:11.205Z,32.77
2017-08-01T11:31:10.157Z,32.67
2017-08-01T11:32:10.460Z,32.49
2017-08-01T11:33:10.465Z,32.36
2017-08-01T11:34:10.476Z,32.22
2017-08-01T11:35:11.252Z,32.3
2017-08-01T11:36:10.493Z,32.31
2017-08-01T11:37:10.508Z,32.53
2017-08-01T11:38:09.903Z,32.58
2017-08-01T11:39:10.213Z,32.73
2017-08-01T11:40:11.248Z,32.92
2017-08-01T11:41:10.529Z,32.96
2017-08-01T11:42:10.241Z,32.96
2017-08-01T11:43:10.546Z,32.93
2017-08-01T11:44:10.254Z,33
2017-08-01T11:45:11.282Z,32.82
2017-08-01T11:46:10.276Z,32.8
2017-08-01T11:47:10.279Z,32.77
2017-08-01T11:48:10.590Z,32.75
2017-08-01T11:49:10.593Z,32.78
2017-08-01T11:50:11.021Z,32.83
2017-08-01T11:51:10.331Z,32.58
2017-08-01T11:52:10.321Z,32.46
2017-08-01T11:53:10.627Z,32.36
2017-08-01T11:54:10.338Z,32.12
2017-08-01T11:55:10.895Z,31.99
2017-08-01T11:56:10.349Z,31.85
2017-08-01T11:57:10.658Z,31.85
2017-08-01T11:58:10.373Z,31.77
2017-08-01T11:59:10.071Z,31.81
2017-08-01T12:00:11.707Z,31.81
2017-08-01T12:01:10.688Z,31.73
2017-08-01T12:02:10.703Z,31.85
2017-08-01T12:03:10.707Z,31.93
2017-08-01T12:04:10.728Z,32.07
2017-08-01T12:05:11.615Z,32.18
2017-08-01T12:06:10.725Z,32.19
2017-08-01T12:07:10.429Z,32.26
2017-08-01T12:08:10.740Z,32.33
2017-08-01T12:09:10.495Z,32.45
2017-08-01T12:10:11.821Z,32.45
2017-08-01T12:11:10.772Z,32.53
2017-08-01T12:12:10.820Z,32.6
2017-08-01T12:13:10.791Z,32.63
2017-08-01T12:14:10.798Z,32.7
2017-08-01T12:15:11.147Z,32.77
2017-08-01T12:16:10.829Z,32.74
2017-08-01T12:17:10.852Z,32.77
2017-08-01T12:18:10.826Z,32.75
2017-08-01T12:19:10.534Z,32.74
2017-08-01T12:20:11.351Z,32.8
2017-08-01T12:21:10.853Z,32.74
2017-08-01T12:22:10.883Z,32.77
2017-08-01T12:23:10.246Z,32.73
2017-08-01T12:24:13.714Z,32.73
2017-08-01T12:25:11.127Z,32.68
2017-08-01T12:26:10.882Z,32.56
2017-08-01T12:27:10.922Z,32.59
2017-08-01T12:28:10.287Z,32.65
2017-08-01T12:29:10.597Z,32.65
2017-08-01T12:30:11.619Z,32.73
2017-08-01T12:31:10.939Z,32.58
2017-08-01T12:32:10.655Z,32.53
2017-08-01T12:33:10.956Z,32.56
2017-08-01T12:34:10.956Z,32.55
2017-08-01T12:35:12.174Z,32.67
2017-08-01T12:36:10.979Z,32.65
2017-08-01T12:37:10.972Z,32.56
2017-08-01T12:38:11.008Z,32.55
2017-08-01T12:39:11.064Z,32.59
2017-08-01T12:40:11.543Z,32.64
2017-08-01T12:41:11.020Z,32.55
2017-08-01T12:42:10.699Z,32.73
2017-08-01T12:43:10.721Z,32.77
2017-08-01T12:44:11.027Z,32.71
2017-08-01T12:45:12.176Z,32.8
2017-08-01T12:46:11.037Z,32.85
2017-08-01T12:47:11.061Z,32.97
2017-08-01T12:48:11.056Z,32.9
2017-08-01T12:49:11.067Z,32.78
2017-08-01T12:50:12.301Z,32.71
2017-08-01T12:51:11.077Z,32.68
2017-08-01T12:52:11.076Z,32.74
2017-08-01T12:53:11.100Z,32.74
2017-08-01T12:54:10.793Z,32.71
2017-08-01T12:55:11.643Z,32.68
2017-08-01T12:56:11.121Z,32.59